Time,TemperatureF,DewpointF,PressureIn,WindDirection,WindDirectionDegrees,WindSpeedMPH,WindSpeedGustMPH,Humidity,HourlyPrecipIn,Conditions,Clouds,dailyrainin,SoftwareType,DateUTC
2013-02-12 00:01:00,62.0,-10.0,30.09,NNE,13,4.0,13.0,5,0.00,,,-99.99,,2013-02-12 00:01:00,
2013-02-12 00:21:00,62.0,-10.0,30.09,North,1,3.0,9.0,5,0.00,,,-99.99,,2013-02-12 00:21:00,
2013-02-12 00:31:00,61.0,-10.0,30.09,North,359,2.0,10.0,5,0.00,,,-99.99,,2013-02-12 00:31:00,
2013-02-12 00:41:00,61.0,-10.0,30.09,North,359,2.0,10.0,5,0.00,,,-99.99,,2013-02-12 00:41:00,
2013-02-12 00:51:00,60.0,-7.0,30.09,North,4,1.0,12.0,6,0.00,,,-99.99,,2013-02-12 00:51:00,
2013-02-12 01:01:00,59.0,-8.0,30.10,NNE,21,4.0,15.0,6,0.00,,,-99.99,,2013-02-12 01:01:00,
2013-02-12 01:21:00,58.0,-9.0,30.10,NNE,33,2.0,13.0,6,0.00,,,-99.99,,2013-02-12 01:21:00,
2013-02-12 01:31:00,58.0,-9.0,30.11,North,1,3.0,10.0,6,0.00,,,-99.99,,2013-02-12 01:31:00,
2013-02-12 01:41:00,57.0,-10.0,30.11,NNE,12,2.0,8.0,6,0.00,,,-99.99,,2013-02-12 01:41:00,
2013-02-12 01:51:00,57.0,-10.0,30.11,NNE,12,2.0,8.0,6,0.00,,,-99.99,,2013-02-12 01:51:00,
2013-02-12 02:01:00,57.0,-10.0,30.11,North,9,4.0,10.0,6,0.00,,,-99.99,,2013-02-12 02:01:00,
2013-02-12 02:11:00,56.0,-7.0,30.13,NE,46,3.0,9.0,7,0.00,,,-99.99,,2013-02-12 02:11:00,
2013-02-12 02:21:00,56.0,-7.0,30.13,NE,46,3.0,9.0,7,0.00,,,-99.99,,2013-02-12 02:21:00,
2013-02-12 02:31:00,56.0,-7.0,30.13,NNE,30,3.0,12.0,7,0.00,,,-99.99,,2013-02-12 02:31:00,
2013-02-12 02:41:00,56.0,-7.0,30.13,NNE,30,3.0,12.0,7,0.00,,,-99.99,,2013-02-12 02:41:00,
2013-02-12 02:52:00,56.0,-7.0,30.14,NE,35,3.0,12.0,7,0.00,,,-99.99,,2013-02-12 02:52:00,
2013-02-12 03:01:00,55.0,-5.0,30.15,NNE,25,2.0,7.0,8,0.00,,,-99.99,,2013-02-12 03:01:00,
2013-02-12 03:11:00,55.0,-5.0,30.15,NNE,17,1.0,11.0,8,0.00,,,-99.99,,2013-02-12 03:11:00,
2013-02-12 03:21:00,55.0,-5.0,30.15,NNE,17,1.0,11.0,8,0.00,,,-99.99,,2013-02-12 03:21:00,
2013-02-12 03:31:00,55.0,-5.0,30.16,North,0,0.0,12.0,8,0.00,,,-99.99,,2013-02-12 03:31:00,
2013-02-12 03:41:00,54.0,-4.0,30.16,North,0,0.0,3.0,9,0.00,,,-99.99,,2013-02-12 03:41:00,
2013-02-12 03:51:00,54.0,-4.0,30.16,North,0,0.0,3.0,9,0.00,,,-99.99,,2013-02-12 03:51:00,
2013-02-12 04:01:00,53.0,-2.0,30.17,North,0,0.0,1.0,10,0.00,,,-99.99,,2013-02-12 04:01:00,
2013-02-12 04:21:00,52.0,1.0,30.17,North,0,0.0,0.0,12,0.00,,,-99.99,,2013-02-12 04:21:00,
2013-02-12 04:31:00,51.0,0.0,30.18,North,0,0.0,0.0,12,0.00,,,-99.99,,2013-02-12 04:31:00,
2013-02-12 04:41:00,51.0,0.0,30.18,North,0,0.0,0.0,12,0.00,,,-99.99,,2013-02-12 04:41:00,
2013-02-12 04:51:00,50.0,3.0,30.18,North,0,0.0,0.0,14,0.00,,,-99.99,,2013-02-12 04:51:00,
2013-02-12 05:01:00,48.0,3.0,30.18,North,0,0.0,0.0,15,0.00,,,-99.99,,2013-02-12 05:01:00,
2013-02-12 05:11:00,46.0,8.0,30.19,North,0,0.0,0.0,21,0.00,,,-99.99,,2013-02-12 05:11:00,
2013-02-12 05:21:00,46.0,8.0,30.19,North,0,0.0,0.0,21,0.00,,,-99.99,,2013-02-12 05:21:00,
2013-02-12 05:31:00,45.0,9.0,30.19,North,0,0.0,0.0,23,0.00,,,-99.99,,2013-02-12 05:31:00,
2013-02-12 05:41:00,45.0,9.0,30.19,North,0,0.0,0.0,23,0.00,,,-99.99,,2013-02-12 05:41:00,
2013-02-12 05:52:00,44.0,9.0,30.19,North,0,0.0,0.0,23,0.00,,,-99.99,,2013-02-12 05:52:00,
2013-02-12 06:01:00,43.0,10.0,30.20,North,0,0.0,0.0,25,0.00,,,-99.99,,2013-02-12 06:01:00,
2013-02-12 06:11:00,42.0,10.0,30.20,North,0,0.0,0.0,27,0.00,,,-99.99,,2013-02-12 06:11:00,
2013-02-12 06:21:00,42.0,10.0,30.20,North,0,0.0,0.0,27,0.00,,,-99.99,,2013-02-12 06:21:00,
2013-02-12 06:31:00,43.0,11.0,30.20,North,0,0.0,0.0,27,0.00,,,-99.99,,2013-02-12 06:31:00,
2013-02-12 06:42:00,43.0,13.0,30.20,North,0,0.0,0.0,29,0.00,,,-99.99,,2013-02-12 06:42:00,
2013-02-12 06:51:00,43.0,13.0,30.20,North,0,0.0,0.0,29,0.00,,,-99.99,,2013-02-12 06:51:00,
2013-02-12 07:01:00,43.0,10.0,30.20,North,0,0.0,0.0,26,0.00,,,-99.99,,2013-02-12 07:01:00,
2013-02-12 07:11:00,43.0,11.0,30.20,North,0,0.0,0.0,27,0.00,,,-99.99,,2013-02-12 07:11:00,
2013-02-12 07:21:00,43.0,11.0,30.20,North,0,0.0,0.0,27,0.00,,,-99.99,,2013-02-12 07:21:00,
2013-02-12 07:31:00,42.0,13.0,30.21,North,0,0.0,0.0,30,0.00,,,-99.99,,2013-02-12 07:31:00,
2013-02-12 07:41:00,42.0,13.0,30.21,North,0,0.0,0.0,30,0.00,,,-99.99,,2013-02-12 07:41:00,
2013-02-12 07:51:00,41.0,10.0,30.21,North,0,0.0,0.0,28,0.00,,,-99.99,,2013-02-12 07:51:00,
2013-02-12 08:01:00,41.0,10.0,30.21,North,0,0.0,0.0,27,0.00,,,-99.99,,2013-02-12 08:01:00,
2013-02-12 08:21:00,40.0,9.0,30.21,North,0,0.0,1.0,27,0.00,,,-99.99,,2013-02-12 08:21:00,
2013-02-12 08:31:00,39.0,9.0,30.21,North,0,0.0,0.0,29,0.00,,,-99.99,,2013-02-12 08:31:00,
2013-02-12 08:41:00,39.0,9.0,30.21,North,0,0.0,0.0,29,0.00,,,-99.99,,2013-02-12 08:41:00,
2013-02-12 08:52:00,39.0,9.0,30.22,North,0,0.0,3.0,29,0.00,,,-99.99,,2013-02-12 08:52:00,
2013-02-12 09:01:00,40.0,9.0,30.22,North,0,0.0,3.0,27,0.00,,,-99.99,,2013-02-12 09:01:00,
2013-02-12 09:11:00,41.0,9.0,30.22,North,0,0.0,2.0,26,0.00,,,-99.99,,2013-02-12 09:11:00,
2013-02-12 09:21:00,41.0,9.0,30.22,North,0,0.0,2.0,26,0.00,,,-99.99,,2013-02-12 09:21:00,
2013-02-12 09:31:00,41.0,8.0,30.22,North,0,0.0,4.0,25,0.00,,,-99.99,,2013-02-12 09:31:00,
2013-02-12 09:41:00,40.0,8.0,30.22,North,0,0.0,2.0,26,0.00,,,-99.99,,2013-02-12 09:41:00,
2013-02-12 09:51:00,40.0,8.0,30.22,North,0,0.0,2.0,26,0.00,,,-99.99,,2013-02-12 09:51:00,
2013-02-12 10:01:00,41.0,8.0,30.22,North,0,0.0,3.0,25,0.00,,,-99.99,,2013-02-12 10:01:00,
2013-02-12 10:11:00,40.0,8.0,30.22,North,0,0.0,1.0,26,0.00,,,-99.99,,2013-02-12 10:11:00,
2013-02-12 10:21:00,40.0,8.0,30.22,North,0,0.0,1.0,26,0.00,,,-99.99,,2013-02-12 10:21:00,
2013-02-12 10:31:00,40.0,8.0,30.22,North,0,0.0,1.0,26,0.00,,,-99.99,,2013-02-12 10:31:00,
2013-02-12 10:43:00,40.0,8.0,30.22,North,0,0.0,1.0,26,0.00,,,-99.99,,2013-02-12 10:43:00,
2013-02-12 10:51:00,40.0,8.0,30.22,North,0,0.0,1.0,26,0.00,,,-99.99,,2013-02-12 10:51:00,
2013-02-12 11:01:00,40.0,7.0,30.22,North,0,0.0,2.0,25,0.00,,,-99.99,,2013-02-12 11:01:00,
2013-02-12 11:11:00,41.0,7.0,30.21,North,0,0.0,1.0,24,0.00,,,-99.99,,2013-02-12 11:11:00,
2013-02-12 11:21:00,41.0,7.0,30.21,North,0,0.0,1.0,24,0.00,,,-99.99,,2013-02-12 11:21:00,
2013-02-12 11:31:00,41.0,7.0,30.21,North,0,0.0,3.0,24,0.00,,,-99.99,,2013-02-12 11:31:00,
2013-02-12 11:41:00,41.0,7.0,30.21,North,0,0.0,3.0,24,0.00,,,-99.99,,2013-02-12 11:41:00,
2013-02-12 11:52:00,40.0,7.0,30.22,North,0,0.0,3.0,25,0.00,,,-99.99,,2013-02-12 11:52:00,
2013-02-12 12:01:00,40.0,8.0,30.22,North,0,0.0,3.0,26,0.00,,,-99.99,,2013-02-12 12:01:00,
2013-02-12 12:11:00,39.0,8.0,30.22,North,0,0.0,2.0,27,0.00,,,-99.99,,2013-02-12 12:11:00,
2013-02-12 12:21:00,39.0,8.0,30.22,North,0,0.0,2.0,27,0.00,,,-99.99,,2013-02-12 12:21:00,
2013-02-12 12:32:00,39.0,8.0,30.23,North,0,0.0,2.0,27,0.00,,,-99.99,,2013-02-12 12:32:00,
2013-02-12 12:41:00,39.0,9.0,30.23,North,0,0.0,3.0,28,0.00,,,-99.99,,2013-02-12 12:41:00,
2013-02-12 12:52:00,39.0,9.0,30.23,North,0,0.0,3.0,28,0.00,,,-99.99,,2013-02-12 12:52:00,
2013-02-12 13:01:00,38.0,9.0,30.24,North,0,0.0,2.0,30,0.00,,,-99.99,,2013-02-12 13:01:00,
2013-02-12 13:11:00,38.0,9.0,30.24,North,0,0.0,2.0,30,0.00,,,-99.99,,2013-02-12 13:11:00,
2013-02-12 13:21:00,38.0,9.0,30.24,North,0,0.0,2.0,30,0.00,,,-99.99,,2013-02-12 13:21:00,
2013-02-12 13:31:00,38.0,10.0,30.25,North,0,0.0,1.0,31,0.00,,,-99.99,,2013-02-12 13:31:00,
2013-02-12 13:41:00,38.0,10.0,30.25,North,0,0.0,1.0,31,0.00,,,-99.99,,2013-02-12 13:41:00,
2013-02-12 13:51:00,37.0,10.0,30.25,North,0,0.0,0.0,32,0.00,,,-99.99,,2013-02-12 13:51:00,
2013-02-12 14:01:00,37.0,10.0,30.26,North,0,0.0,1.0,32,0.00,,,-99.99,,2013-02-12 14:01:00,
2013-02-12 14:11:00,37.0,10.0,30.26,North,0,0.0,1.0,32,0.00,,,-99.99,,2013-02-12 14:11:00,
2013-02-12 14:21:00,38.0,10.0,30.26,North,0,0.0,4.0,31,0.00,,,-99.99,,2013-02-12 14:21:00,
2013-02-12 14:31:00,38.0,10.0,30.27,North,0,0.0,3.0,31,0.00,,,-99.99,,2013-02-12 14:31:00,
2013-02-12 14:41:00,38.0,10.0,30.27,North,0,0.0,3.0,31,0.00,,,-99.99,,2013-02-12 14:41:00,
2013-02-12 14:52:00,38.0,9.0,30.27,North,0,0.0,2.0,30,0.00,,,-99.99,,2013-02-12 14:52:00,
2013-02-12 15:01:00,39.0,9.0,30.28,North,0,0.0,3.0,29,0.00,,,-99.99,,2013-02-12 15:01:00,
2013-02-12 15:11:00,40.0,10.0,30.29,North,0,0.0,2.0,28,0.00,,,-99.99,,2013-02-12 15:11:00,
2013-02-12 15:21:00,40.0,10.0,30.29,North,0,0.0,2.0,28,0.00,,,-99.99,,2013-02-12 15:21:00,
2013-02-12 15:32:00,41.0,10.0,30.30,North,0,0.0,2.0,27,0.00,,,-99.99,,2013-02-12 15:32:00,
2013-02-12 15:41:00,41.0,10.0,30.30,North,0,0.0,2.0,27,0.00,,,-99.99,,2013-02-12 15:41:00,
2013-02-12 15:52:00,43.0,11.0,30.30,North,0,0.0,4.0,27,0.00,,,-99.99,,2013-02-12 15:52:00,
2013-02-12 16:01:00,44.0,12.0,30.31,North,0,0.0,2.0,27,0.00,,,-99.99,,2013-02-12 16:01:00,
2013-02-12 16:11:00,44.0,12.0,30.31,North,0,0.0,2.0,27,0.00,,,-99.99,,2013-02-12 16:11:00,
2013-02-12 16:21:00,45.0,11.0,30.31,West,265,1.0,4.0,25,0.00,,,-99.99,,2013-02-12 16:21:00,
2013-02-12 16:31:00,48.0,14.0,30.31,North,0,0.0,4.0,25,0.00,,,-99.99,,2013-02-12 16:31:00,
2013-02-12 16:41:00,48.0,14.0,30.31,North,0,0.0,4.0,25,0.00,,,-99.99,,2013-02-12 16:41:00,
2013-02-12 16:51:00,50.0,15.0,30.31,North,0,0.0,3.0,24,0.00,,,-99.99,,2013-02-12 16:51:00,
2013-02-12 17:01:00,52.0,11.0,30.31,North,0,0.0,1.0,19,0.00,,,-99.99,,2013-02-12 17:01:00,
2013-02-12 17:11:00,53.0,12.0,30.31,North,0,0.0,2.0,19,0.00,,,-99.99,,2013-02-12 17:11:00,
2013-02-12 17:21:00,53.0,12.0,30.31,North,0,0.0,2.0,19,0.00,,,-99.99,,2013-02-12 17:21:00,
2013-02-12 17:31:00,55.0,12.0,30.31,North,0,0.0,3.0,18,0.00,,,-99.99,,2013-02-12 17:31:00,
2013-02-12 17:41:00,55.0,12.0,30.31,North,0,0.0,3.0,18,0.00,,,-99.99,,2013-02-12 17:41:00,
2013-02-12 17:51:00,55.0,11.0,30.31,North,0,0.0,3.0,17,0.00,,,-99.99,,2013-02-12 17:51:00,
2013-02-12 18:01:00,57.0,8.0,30.31,North,0,0.0,1.0,14,0.00,,,-99.99,,2013-02-12 18:01:00,
2013-02-12 18:11:00,60.0,7.0,30.31,North,0,0.0,1.0,12,0.00,,,-99.99,,2013-02-12 18:11:00,
2013-02-12 18:22:00,60.0,7.0,30.31,North,0,0.0,1.0,12,0.00,,,-99.99,,2013-02-12 18:22:00,
2013-02-12 18:31:00,61.0,4.0,30.30,North,0,0.0,1.0,10,0.00,,,-99.99,,2013-02-12 18:31:00,
2013-02-12 18:41:00,63.0,6.0,30.30,North,0,0.0,1.0,10,0.00,,,-99.99,,2013-02-12 18:41:00,
2013-02-12 18:51:00,63.0,6.0,30.30,North,0,0.0,1.0,10,0.00,,,-99.99,,2013-02-12 18:51:00,
2013-02-12 19:01:00,63.0,6.0,30.29,North,0,0.0,2.0,10,0.00,,,-99.99,,2013-02-12 19:01:00,
2013-02-12 19:11:00,65.0,2.0,30.29,North,0,0.0,1.0,8,0.00,,,-99.99,,2013-02-12 19:11:00,
2013-02-12 19:21:00,65.0,2.0,30.29,North,0,0.0,1.0,8,0.00,,,-99.99,,2013-02-12 19:21:00,
2013-02-12 19:31:00,65.0,5.0,30.28,North,0,0.0,1.0,9,0.00,,,-99.99,,2013-02-12 19:31:00,
2013-02-12 19:41:00,66.0,3.0,30.28,North,0,0.0,2.0,8,0.00,,,-99.99,,2013-02-12 19:41:00,
2013-02-12 19:51:00,66.0,3.0,30.28,North,0,0.0,2.0,8,0.00,,,-99.99,,2013-02-12 19:51:00,
2013-02-12 20:01:00,65.0,2.0,30.27,North,0,0.0,3.0,8,0.00,,,-99.99,,2013-02-12 20:01:00,
2013-02-12 20:11:00,65.0,2.0,30.26,West,265,1.0,4.0,8,0.00,,,-99.99,,2013-02-12 20:11:00,
2013-02-12 20:21:00,65.0,2.0,30.26,West,265,1.0,4.0,8,0.00,,,-99.99,,2013-02-12 20:21:00,
2013-02-12 20:31:00,66.0,3.0,30.25,North,0,0.0,2.0,8,0.00,,,-99.99,,2013-02-12 20:31:00,
2013-02-12 20:41:00,66.0,0.0,30.24,North,0,0.0,2.0,7,0.00,,,-99.99,,2013-02-12 20:41:00,
2013-02-12 20:51:00,66.0,0.0,30.24,North,0,0.0,2.0,7,0.00,,,-99.99,,2013-02-12 20:51:00,
2013-02-12 21:01:00,67.0,4.0,30.24,North,0,0.0,3.0,8,0.00,,,-99.99,,2013-02-12 21:01:00,
2013-02-12 21:11:00,67.0,-2.0,30.22,ESE,123,1.0,3.0,6,0.00,,,-99.99,,2013-02-12 21:11:00,
2013-02-12 21:21:00,67.0,-2.0,30.22,ESE,123,1.0,3.0,6,0.00,,,-99.99,,2013-02-12 21:21:00,
2013-02-12 21:31:00,68.0,-2.0,30.22,North,0,0.0,4.0,6,0.00,,,-99.99,,2013-02-12 21:31:00,
2013-02-12 21:41:00,68.0,-2.0,30.21,North,0,0.0,4.0,6,0.00,,,-99.99,,2013-02-12 21:41:00,
2013-02-12 21:51:00,68.0,-2.0,30.21,North,0,0.0,4.0,6,0.00,,,-99.99,,2013-02-12 21:51:00,
2013-02-12 22:01:00,68.0,-2.0,30.20,North,0,0.0,5.0,6,0.00,,,-99.99,,2013-02-12 22:01:00,
2013-02-12 22:11:00,68.0,-2.0,30.20,North,0,0.0,3.0,6,0.00,,,-99.99,,2013-02-12 22:11:00,
2013-02-12 22:21:00,68.0,-2.0,30.20,North,0,0.0,3.0,6,0.00,,,-99.99,,2013-02-12 22:21:00,
2013-02-12 22:31:00,67.0,-6.0,30.19,SE,128,1.0,3.0,5,0.00,,,-99.99,,2013-02-12 22:31:00,
2013-02-12 22:41:00,67.0,-2.0,30.19,North,0,0.0,4.0,6,0.00,,,-99.99,,2013-02-12 22:41:00,
2013-02-12 22:51:00,67.0,-2.0,30.19,North,0,0.0,4.0,6,0.00,,,-99.99,,2013-02-12 22:51:00,
2013-02-12 23:01:00,69.0,-1.0,30.19,North,0,0.0,4.0,6,0.00,,,-99.99,,2013-02-12 23:01:00,
2013-02-12 23:11:00,69.0,-1.0,30.19,West,262,1.0,3.0,6,0.00,,,-99.99,,2013-02-12 23:11:00,
2013-02-12 23:21:00,69.0,-1.0,30.19,West,262,1.0,3.0,6,0.00,,,-99.99,,2013-02-12 23:21:00,
2013-02-12 23:31:00,70.0,0.0,30.18,SW,231,1.0,6.0,6,0.00,,,-99.99,,2013-02-12 23:31:00,
2013-02-12 23:41:00,70.0,0.0,30.18,SW,231,1.0,6.0,6,0.00,,,-99.99,,2013-02-12 23:41:00,
2013-02-12 23:52:00,70.0,0.0,30.18,North,0,0.0,4.0,6,0.00,,,-99.99,,2013-02-12 23:52:00,